Time;durP1;ratioP1;P1;durP2;ratioP2;P2;SDS_P1;SDS_P2;PMS_P1;PMS_P2;Temp;Humidity;BMP_temperature;BMP_pressure;BME280_temperature;BME280_humidity;BME280_pressure;Samples;Min_cycle;Max_cycle;Signal;HPM_P1;HPM_P2
2023/11/22 00:02:18;;;;;;;6.70;3.40;;;9.40;98.00;;;;;;4994191;28;20483;-68
2023/11/22 00:04:45;;;;;;;6.50;3.27;;;9.40;98.00;;;;;;4994184;28;20518;-68
2023/11/22 00:07:14;;;;;;;4.03;2.50;;;9.40;98.00;;;;;;4994223;28;20460;-69
2023/11/22 00:09:42;;;;;;;4.77;2.53;;;9.40;98.00;;;;;;4994194;28;20461;-68
2023/11/22 00:12:09;;;;;;;3.20;2.27;;;9.30;98.00;;;;;;4993986;28;20492;-68
2023/11/22 00:14:36;;;;;;;2.80;2.20;;;9.20;98.00;;;;;;4994091;28;20488;-68
2023/11/22 00:17:04;;;;;;;4.10;2.20;;;9.10;98.00;;;;;;4993750;28;20464;-68
2023/11/22 00:22:14;;;;;;;3.50;2.50;;;9.00;98.00;;;;;;4992765;28;20575;-68
2023/11/22 00:24:41;;;;;;;4.50;2.33;;;9.00;98.00;;;;;;4993947;28;20457;-68
2023/11/22 00:27:10;;;;;;;6.00;3.03;;;8.90;98.00;;;;;;4993810;28;20816;-68
2023/11/22 00:29:37;;;;;;;5.23;3.10;;;8.90;98.00;;;;;;4993891;28;20459;-67
2023/11/22 00:32:05;;;;;;;10.33;3.60;;;8.80;98.00;;;;;;4993835;28;20840;-68
2023/11/22 00:34:32;;;;;;;5.23;3.10;;;8.50;98.00;;;;;;4993639;28;20579;-68
2023/11/22 00:36:59;;;;;;;4.43;3.00;;;8.50;98.00;;;;;;4993608;28;20512;-68
2023/11/22 00:39:28;;;;;;;6.63;3.20;;;8.30;98.00;;;;;;4993805;28;20460;-68
2023/11/22 00:41:55;;;;;;;4.60;3.00;;;8.40;98.00;;;;;;4993505;28;20458;-67
2023/11/22 00:44:22;;;;;;;5.43;3.03;;;8.40;98.00;;;;;;4993580;28;20458;-68
2023/11/22 00:46:49;;;;;;;6.27;3.40;;;8.40;98.00;;;;;;4992104;28;20515;-67
2023/11/22 00:49:17;;;;;;;7.00;3.47;;;8.30;98.00;;;;;;4993545;28;20453;-68
2023/11/22 00:51:45;;;;;;;7.30;3.50;;;8.30;98.00;;;;;;4993517;28;20468;-68
2023/11/22 00:54:12;;;;;;;7.03;3.60;;;8.20;98.00;;;;;;4993398;28;20502;-68
2023/11/22 00:56:40;;;;;;;6.90;3.40;;;8.10;98.00;;;;;;4993445;28;20457;-68
2023/11/22 00:59:08;;;;;;;6.60;3.53;;;8.10;98.00;;;;;;4992253;28;20457;-67
2023/11/22 01:01:36;;;;;;;4.87;3.10;;;8.10;98.00;;;;;;4993302;28;21013;-68
2023/11/22 01:04:03;;;;;;;6.50;3.07;;;8.10;98.00;;;;;;4993424;28;20463;-68
2023/11/22 01:06:31;;;;;;;5.20;2.70;;;8.00;98.00;;;;;;4993254;28;20457;-68
2023/11/22 01:08:59;;;;;;;6.60;3.13;;;8.00;98.00;;;;;;4993080;28;20546;-68
2023/11/22 01:11:26;;;;;;;5.07;2.87;;;7.90;98.00;;;;;;4991690;28;20466;-68
2023/11/22 01:13:54;;;;;;;7.47;3.60;;;7.80;98.00;;;;;;4993041;28;20478;-67
2023/11/22 01:16:22;;;;;;;6.53;3.17;;;7.80;98.00;;;;;;4992620;28;20462;-68
2023/11/22 01:18:49;;;;;;;5.80;3.20;;;7.80;98.00;;;;;;4991936;28;20796;-68
2023/11/22 01:21:16;;;;;;;6.70;3.00;;;7.90;98.00;;;;;;4992864;28;20453;-68
2023/11/22 01:23:45;;;;;;;10.47;3.03;;;7.80;98.00;;;;;;4992575;28;20466;-67
2023/11/22 01:26:12;;;;;;;5.07;2.97;;;7.80;98.00;;;;;;4991130;28;20505;-67
2023/11/22 01:28:44;;;;;;;4.80;2.63;;;7.90;98.00;;;;;;4992093;28;20527;-67
2023/11/22 01:31:14;;;;;;;7.40;3.10;;;7.90;98.00;;;;;;4992304;28;20539;-68
2023/11/22 01:33:41;;;;;;;6.63;3.27;;;7.80;98.00;;;;;;4992515;28;20543;-68
2023/11/22 01:36:08;;;;;;;5.37;3.00;;;7.70;98.00;;;;;;4992139;28;20464;-68
2023/11/22 01:38:39;;;;;;;8.00;3.73;;;7.70;98.00;;;;;;4991085;28;20556;-68
2023/11/22 01:43:48;;;;;;;6.60;3.40;;;7.60;98.00;;;;;;4991182;28;20470;-67
2023/11/22 01:46:23;;;;;;;6.70;3.80;;;7.70;98.00;;;;;;4992210;28;20461;-68
2023/11/22 01:48:52;;;;;;;5.67;3.33;;;7.70;98.00;;;;;;4992446;28;20547;-67
2023/11/22 01:51:20;;;;;;;6.03;3.50;;;7.70;98.00;;;;;;4992252;28;20497;-68
2023/11/22 01:53:48;;;;;;;6.93;3.37;;;7.70;98.00;;;;;;4991894;28;20511;-68
2023/11/22 01:56:17;;;;;;;6.50;3.20;;;7.60;98.00;;;;;;4992090;28;20449;-67
2023/11/22 01:58:44;;;;;;;7.10;3.57;;;7.50;98.00;;;;;;4991056;28;20537;-68
2023/11/22 02:01:13;;;;;;;7.17;3.53;;;7.40;98.00;;;;;;4992110;28;21084;-68
2023/11/22 02:03:42;;;;;;;6.17;3.13;;;7.40;98.00;;;;;;4990878;28;20869;-67
2023/11/22 02:06:10;;;;;;;5.27;3.30;;;7.30;98.00;;;;;;4991745;28;20454;-67
2023/11/22 02:08:37;;;;;;;5.40;3.20;;;7.30;98.00;;;;;;4991938;28;20459;-68
2023/11/22 02:11:04;;;;;;;6.30;3.27;;;7.30;98.00;;;;;;4992006;28;20460;-67
2023/11/22 02:13:33;;;;;;;5.77;3.20;;;7.40;98.00;;;;;;4992306;28;20449;-68
2023/11/22 02:16:01;;;;;;;6.17;3.50;;;7.20;98.00;;;;;;4990803;28;20497;-68
2023/11/22 02:18:29;;;;;;;6.40;3.17;;;7.20;98.00;;;;;;4992118;28;20456;-67
2023/11/22 02:20:57;;;;;;;5.03;3.47;;;7.30;98.00;;;;;;4992258;28;20839;-67
2023/11/22 02:23:26;;;;;;;6.80;3.53;;;7.30;98.00;;;;;;4992251;28;20507;-68
2023/11/22 02:25:53;;;;;;;6.60;3.43;;;7.30;98.00;;;;;;4974833;28;20966;-68
2023/11/22 02:28:21;;;;;;;5.60;3.30;;;7.30;98.00;;;;;;4990817;28;20542;-68
2023/11/22 02:30:48;;;;;;;7.20;3.77;;;7.30;98.00;;;;;;4975334;28;20449;-68
2023/11/22 02:33:15;;;;;;;8.20;3.40;;;7.40;98.00;;;;;;4991939;28;20449;-68
2023/11/22 02:35:42;;;;;;;6.80;3.70;;;7.30;98.00;;;;;;4992090;28;20503;-67
2023/11/22 02:38:10;;;;;;;5.67;3.50;;;7.30;98.00;;;;;;4992075;28;20468;-68
2023/11/22 02:40:38;;;;;;;5.93;3.57;;;7.30;98.00;;;;;;4994816;28;20460;-67
2023/11/22 02:43:08;;;;;;;6.07;3.27;;;7.20;98.00;;;;;;4995906;28;20493;-67
2023/11/22 02:45:36;;;;;;;7.27;3.77;;;7.20;98.00;;;;;;4995805;28;20455;-67
2023/11/22 02:48:04;;;;;;;9.23;3.97;;;7.20;98.00;;;;;;4994192;28;20460;-68
2023/11/22 02:50:34;;;;;;;7.70;3.60;;;7.20;98.00;;;;;;4995874;28;20515;-68
2023/11/22 02:53:01;;;;;;;8.27;3.70;;;7.10;98.00;;;;;;4995631;28;20490;-68
2023/11/22 02:55:29;;;;;;;12.27;3.97;;;6.90;98.00;;;;;;4995243;28;20483;-68
2023/11/22 02:57:57;;;;;;;5.10;3.23;;;6.80;98.00;;;;;;4995890;28;20969;-67
2023/11/22 03:00:25;;;;;;;6.03;3.53;;;6.60;98.00;;;;;;4995183;28;20452;-68
2023/11/22 03:02:53;;;;;;;6.33;3.43;;;6.60;98.00;;;;;;4995145;28;20614;-68
2023/11/22 03:05:21;;;;;;;4.33;2.73;;;6.60;98.00;;;;;;4994914;28;20772;-68
2023/11/22 03:07:50;;;;;;;6.20;3.10;;;6.60;98.00;;;;;;4995151;28;20548;-68
2023/11/22 03:10:18;;;;;;;6.37;3.23;;;6.60;98.00;;;;;;4995091;28;21153;-68
2023/11/22 03:12:46;;;;;;;6.47;3.40;;;6.50;98.00;;;;;;4995042;28;20455;-68
2023/11/22 03:15:14;;;;;;;7.30;3.40;;;6.40;98.00;;;;;;4994782;28;21002;-69
2023/11/22 03:17:43;;;;;;;5.90;2.87;;;6.50;98.00;;;;;;4995220;28;20463;-68
2023/11/22 03:20:11;;;;;;;6.63;3.47;;;6.40;98.00;;;;;;4993815;28;20461;-68
2023/11/22 03:22:39;;;;;;;7.07;3.30;;;6.30;98.00;;;;;;4994987;28;20841;-68
2023/11/22 03:25:09;;;;;;;8.17;3.57;;;6.20;98.00;;;;;;4994849;28;20460;-68
2023/11/22 03:27:37;;;;;;;6.13;3.10;;;6.10;98.00;;;;;;4994910;28;20993;-68
2023/11/22 03:30:05;;;;;;;9.83;3.70;;;6.20;98.00;;;;;;4994849;28;20515;-68
2023/11/22 03:32:36;;;;;;;7.20;3.60;;;6.30;98.00;;;;;;4994762;28;20458;-68
2023/11/22 03:35:05;;;;;;;6.77;3.10;;;6.40;98.00;;;;;;4994626;28;20482;-68
2023/11/22 03:37:32;;;;;;;7.23;3.17;;;6.50;98.00;;;;;;4994857;28;20456;-68
2023/11/22 03:39:59;;;;;;;6.47;3.50;;;6.50;98.00;;;;;;4994583;28;20518;-68
2023/11/22 03:42:27;;;;;;;7.53;3.30;;;6.30;98.00;;;;;;4993247;28;20949;-67
2023/11/22 03:44:54;;;;;;;6.20;3.10;;;6.40;98.00;;;;;;4993365;28;20500;-67
2023/11/22 03:47:21;;;;;;;5.40;3.00;;;6.40;98.00;;;;;;4994396;28;20990;-67
2023/11/22 03:49:49;;;;;;;6.90;3.60;;;6.50;98.00;;;;;;4994643;28;20455;-67
2023/11/22 03:52:17;;;;;;;6.27;3.37;;;6.40;98.00;;;;;;4993792;28;20457;-68
2023/11/22 03:54:44;;;;;;;5.73;3.10;;;6.40;98.00;;;;;;4994482;28;20572;-67
2023/11/22 03:57:11;;;;;;;7.23;3.20;;;6.40;98.00;;;;;;4994152;28;20455;-69
2023/11/22 03:59:38;;;;;;;5.07;2.70;;;6.30;98.00;;;;;;4994273;28;20454;-68
2023/11/22 04:02:07;;;;;;;7.43;3.10;;;6.20;98.00;;;;;;4992978;28;20587;-67
2023/11/22 04:04:37;;;;;;;5.70;3.00;;;6.10;98.00;;;;;;4994222;28;20464;-68
2023/11/22 04:07:06;;;;;;;6.40;3.07;;;6.20;98.00;;;;;;4994112;28;20524;-68
2023/11/22 04:09:33;;;;;;;4.73;2.83;;;6.20;98.00;;;;;;4994158;28;20455;-68
2023/11/22 04:12:00;;;;;;;5.80;2.83;;;6.10;98.00;;;;;;4994179;28;20551;-68
2023/11/22 04:14:27;;;;;;;6.70;3.13;;;6.10;98.00;;;;;;4993500;28;20473;-68
2023/11/22 04:16:54;;;;;;;6.77;2.90;;;6.00;98.00;;;;;;4994014;28;20491;-67
2023/11/22 04:19:21;;;;;;;7.07;3.07;;;5.90;98.00;;;;;;4994141;28;20462;-68
2023/11/22 04:21:49;;;;;;;5.83;2.80;;;5.90;98.00;;;;;;4994001;28;20456;-68
2023/11/22 04:24:17;;;;;;;6.63;2.93;;;5.90;98.00;;;;;;4994265;28;20458;-68
2023/11/22 04:26:45;;;;;;;5.63;2.90;;;6.00;98.00;;;;;;4994031;28;20853;-67
2023/11/22 04:29:12;;;;;;;10.13;2.80;;;6.00;98.00;;;;;;4993401;28;20511;-68
2023/11/22 04:31:40;;;;;;;5.83;2.90;;;6.00;98.00;;;;;;4993761;28;20452;-68
2023/11/22 04:34:07;;;;;;;10.90;3.83;;;6.00;98.00;;;;;;4992610;28;20503;-68
2023/11/22 04:36:34;;;;;;;11.20;3.87;;;6.00;98.00;;;;;;4992114;28;20543;-68
2023/11/22 04:39:03;;;;;;;7.13;2.67;;;5.90;98.00;;;;;;4993720;28;20453;-68
2023/11/22 04:41:31;;;;;;;6.30;3.30;;;5.90;98.00;;;;;;4992200;28;20944;-68
2023/11/22 04:43:58;;;;;;;6.10;3.10;;;6.00;98.00;;;;;;4993083;28;20468;-68
2023/11/22 04:46:25;;;;;;;6.10;3.00;;;5.90;98.00;;;;;;4993138;28;20455;-68
2023/11/22 04:48:55;;;;;;;4.97;2.60;;;5.90;98.00;;;;;;4993081;28;20464;-68
2023/11/22 04:51:24;;;;;;;4.33;2.70;;;5.90;98.00;;;;;;4993216;28;20492;-68
2023/11/22 04:53:51;;;;;;;6.93;3.13;;;6.00;98.00;;;;;;4993149;28;20497;-68
2023/11/22 04:56:18;;;;;;;4.67;2.83;;;5.90;98.00;;;;;;4991841;28;20985;-68
2023/11/22 04:58:47;;;;;;;5.37;3.17;;;5.90;98.00;;;;;;4993090;28;20516;-68
2023/11/22 05:01:14;;;;;;;6.97;3.50;;;5.80;98.00;;;;;;4993137;28;20491;-68
2023/11/22 05:03:41;;;;;;;6.77;3.43;;;5.80;98.00;;;;;;4991990;28;20523;-68
2023/11/22 05:06:08;;;;;;;4.80;2.80;;;5.80;98.00;;;;;;4992944;28;20814;-68
2023/11/22 05:08:35;;;;;;;6.50;2.90;;;5.70;98.00;;;;;;4991703;28;20506;-68
2023/11/22 05:11:02;;;;;;;7.80;3.03;;;5.70;98.00;;;;;;4992930;28;20458;-68
2023/11/22 05:13:30;;;;;;;3.83;2.70;;;5.70;98.00;;;;;;4993093;28;20499;-68
2023/11/22 05:15:59;;;;;;;5.77;3.17;;;5.80;98.00;;;;;;4992692;28;20519;-68
2023/11/22 05:18:26;;;;;;;5.60;2.97;;;5.90;98.00;;;;;;4992842;28;20470;-68
2023/11/22 05:20:53;;;;;;;6.50;3.37;;;5.80;98.00;;;;;;4992722;28;20531;-68
2023/11/22 05:23:20;;;;;;;7.13;3.23;;;5.80;98.00;;;;;;4992666;28;20461;-67
2023/11/22 05:25:47;;;;;;;6.20;2.87;;;5.80;98.00;;;;;;4991608;28;20855;-68
2023/11/22 05:28:20;;;;;;;8.03;2.93;;;5.70;98.00;;;;;;4992586;28;20553;-68
2023/11/22 05:30:47;;;;;;;7.40;3.20;;;5.60;98.00;;;;;;4992456;28;20458;-68
2023/11/22 05:33:17;;;;;;;5.80;3.10;;;5.50;98.00;;;;;;4992488;28;20462;-68
2023/11/22 05:35:44;;;;;;;7.20;3.57;;;5.50;98.00;;;;;;4992588;28;20492;-68
2023/11/22 05:38:12;;;;;;;5.97;3.27;;;5.50;98.00;;;;;;4991343;28;20455;-68
2023/11/22 05:40:41;;;;;;;9.80;4.60;;;5.50;98.00;;;;;;4992202;28;20463;-67
2023/11/22 05:43:09;;;;;;;8.00;3.80;;;5.50;98.00;;;;;;4992198;28;20491;-67
2023/11/22 05:45:36;;;;;;;6.63;3.30;;;5.50;98.00;;;;;;4992593;28;20453;-67
2023/11/22 05:48:04;;;;;;;6.83;3.30;;;5.50;98.00;;;;;;4992784;28;20460;-67
2023/11/22 05:50:32;;;;;;;6.90;2.80;;;5.50;98.00;;;;;;4992929;28;20457;-67
2023/11/22 05:53:00;;;;;;;4.90;2.70;;;5.50;98.00;;;;;;4992649;28;21004;-67
2023/11/22 05:55:27;;;;;;;5.50;3.27;;;5.60;98.00;;;;;;4991691;28;20482;-67
2023/11/22 05:57:54;;;;;;;5.73;2.90;;;5.50;98.00;;;;;;4992708;28;20458;-67
2023/11/22 06:00:22;;;;;;;7.33;3.60;;;5.60;98.00;;;;;;4991446;28;20474;-67
2023/11/22 06:02:49;;;;;;;6.43;3.70;;;5.70;98.00;;;;;;4991599;28;20467;-67
2023/11/22 06:05:16;;;;;;;7.13;3.47;;;5.70;98.00;;;;;;4992743;28;20457;-67
2023/11/22 06:07:44;;;;;;;8.73;3.50;;;5.60;98.00;;;;;;4992488;28;20494;-67
2023/11/22 06:10:13;;;;;;;8.40;3.13;;;5.60;98.00;;;;;;4992388;28;20470;-67
2023/11/22 06:12:40;;;;;;;6.33;3.00;;;5.60;98.00;;;;;;4992545;28;20459;-67
2023/11/22 06:15:08;;;;;;;6.00;2.83;;;5.60;98.00;;;;;;4993939;28;20455;-67
2023/11/22 06:17:36;;;;;;;6.70;3.50;;;5.50;98.00;;;;;;4996152;28;20465;-67
2023/11/22 06:20:04;;;;;;;7.07;3.23;;;5.50;98.00;;;;;;4996610;28;20450;-67
2023/11/22 06:22:32;;;;;;;6.87;3.50;;;5.50;98.00;;;;;;4996064;28;20474;-67
2023/11/22 06:25:00;;;;;;;6.90;3.20;;;5.50;98.00;;;;;;4995872;28;20457;-67
2023/11/22 06:27:27;;;;;;;5.90;3.00;;;5.60;98.00;;;;;;4995833;28;20460;-67
2023/11/22 06:29:54;;;;;;;5.30;2.80;;;5.60;98.00;;;;;;4995735;28;20483;-67
2023/11/22 06:32:21;;;;;;;6.43;3.17;;;5.60;98.00;;;;;;4994743;28;20467;-67
2023/11/22 06:34:56;;;;;;;7.00;3.30;;;5.60;98.00;;;;;;4995808;28;20467;-66
2023/11/22 06:37:23;;;;;;;6.70;3.70;;;5.60;98.00;;;;;;4994574;28;20576;-67
2023/11/22 06:39:54;;;;;;;7.53;3.63;;;5.60;98.00;;;;;;4995821;28;20469;-67
2023/11/22 06:42:22;;;;;;;7.03;3.43;;;5.60;98.00;;;;;;4995764;28;20464;-67
2023/11/22 06:44:50;;;;;;;6.20;3.33;;;5.60;98.00;;;;;;4995670;28;20457;-67
2023/11/22 06:47:17;;;;;;;5.30;3.20;;;5.60;98.00;;;;;;4995606;28;20481;-66
2023/11/22 06:49:44;;;;;;;9.40;4.40;;;5.50;98.00;;;;;;4995732;28;20793;-67
2023/11/22 06:52:12;;;;;;;7.07;3.77;;;5.40;98.00;;;;;;4994518;28;20565;-66
2023/11/22 06:54:39;;;;;;;7.53;3.20;;;5.50;98.00;;;;;;4995658;28;20858;-67
2023/11/22 06:57:06;;;;;;;8.50;3.17;;;5.50;98.00;;;;;;4994197;28;20496;-66
2023/11/22 06:59:36;;;;;;;8.60;3.90;;;5.50;98.00;;;;;;4995495;28;20452;-62
2023/11/22 07:02:03;;;;;;;10.20;3.70;;;5.50;98.00;;;;;;4995444;28;20461;-62
2023/11/22 07:04:30;;;;;;;7.20;3.70;;;5.60;98.00;;;;;;4995614;28;20454;-62
2023/11/22 07:06:57;;;;;;;7.00;3.60;;;5.60;98.00;;;;;;4995270;28;21113;-62
2023/11/22 07:09:24;;;;;;;9.40;4.00;;;5.60;98.00;;;;;;4995318;28;20450;-62
2023/11/22 07:11:52;;;;;;;8.93;3.77;;;5.70;98.00;;;;;;4995381;28;20920;-62
2023/11/22 07:14:19;;;;;;;6.90;3.40;;;5.70;98.00;;;;;;4995391;28;20824;-61
2023/11/22 07:16:48;;;;;;;9.83;3.70;;;5.60;98.00;;;;;;4995012;28;20495;-62
2023/11/22 07:19:15;;;;;;;6.00;3.07;;;5.60;98.00;;;;;;4995196;28;20467;-62
2023/11/22 07:21:42;;;;;;;4.60;2.90;;;5.70;98.00;;;;;;4977832;28;20824;-62
2023/11/22 07:24:13;;;;;;;4.60;2.67;;;5.80;98.00;;;;;;4995042;28;20450;-62
2023/11/22 07:26:40;;;;;;;6.27;3.03;;;5.80;98.00;;;;;;4994098;28;20951;-62
2023/11/22 07:29:07;;;;;;;5.77;2.90;;;5.70;98.00;;;;;;4994896;28;20455;-62
2023/11/22 07:31:35;;;;;;;6.17;3.13;;;5.70;98.00;;;;;;4995121;28;20450;-62
2023/11/22 07:34:04;;;;;;;9.37;3.37;;;5.70;98.00;;;;;;4995106;28;20463;-62
2023/11/22 07:36:37;;;;;;;8.10;3.47;;;5.80;98.00;;;;;;4995152;28;20942;-62
2023/11/22 07:39:05;;;;;;;5.40;2.70;;;5.80;98.00;;;;;;4994735;28;20533;-62
2023/11/22 07:41:34;;;;;;;5.33;2.80;;;5.80;98.00;;;;;;4994777;28;20448;-62
2023/11/22 07:44:01;;;;;;;4.10;2.60;;;5.90;98.00;;;;;;4994294;28;20503;-62
2023/11/22 07:46:28;;;;;;;8.50;3.30;;;5.90;98.00;;;;;;4994960;28;20490;-62
2023/11/22 07:48:57;;;;;;;5.60;3.33;;;5.80;98.00;;;;;;4994583;28;20458;-62
2023/11/22 07:51:27;;;;;;;6.10;3.03;;;5.90;98.00;;;;;;4994983;28;20814;-62
2023/11/22 07:53:55;;;;;;;6.07;3.47;;;5.80;98.00;;;;;;4994360;28;20826;-63
2023/11/22 07:56:22;;;;;;;6.00;2.93;;;5.80;98.00;;;;;;4994002;28;20588;-62
2023/11/22 07:58:58;;;;;;;6.03;3.10;;;5.80;98.00;;;;;;4993836;28;20504;-63
2023/11/22 08:01:25;;;;;;;5.53;2.93;;;5.90;98.00;;;;;;4993995;28;20458;-62
2023/11/22 08:03:52;;;;;;;6.67;3.60;;;5.90;98.00;;;;;;4993833;28;20514;-62
2023/11/22 08:06:20;;;;;;;6.50;3.50;;;5.80;98.00;;;;;;4992795;28;20465;-62
2023/11/22 08:08:49;;;;;;;7.93;3.10;;;5.80;98.00;;;;;;4994000;28;20454;-62
2023/11/22 08:11:17;;;;;;;5.80;3.00;;;5.70;98.00;;;;;;4994291;28;20453;-62
2023/11/22 08:13:44;;;;;;;7.40;3.37;;;5.70;98.00;;;;;;4993905;28;20455;-62
2023/11/22 08:16:12;;;;;;;6.27;3.17;;;5.70;98.00;;;;;;4993880;28;20487;-62
2023/11/22 08:18:40;;;;;;;6.73;3.67;;;5.80;98.00;;;;;;4994018;28;20535;-62
2023/11/22 08:21:08;;;;;;;8.57;3.70;;;5.90;98.00;;;;;;4993969;28;20460;-62
2023/11/22 08:23:35;;;;;;;7.13;3.70;;;5.90;98.00;;;;;;4994081;28;20468;-62
2023/11/22 08:26:04;;;;;;;8.57;3.53;;;5.90;98.00;;;;;;4993787;28;20465;-62
2023/11/22 08:28:31;;;;;;;9.20;4.00;;;5.90;98.00;;;;;;4993828;28;20466;-62
2023/11/22 08:30:58;;;;;;;5.90;3.03;;;5.90;98.00;;;;;;4993990;28;20461;-62
2023/11/22 08:33:25;;;;;;;6.27;3.30;;;5.90;98.00;;;;;;4993382;28;20821;-62
2023/11/22 08:35:58;;;;;;;7.13;3.30;;;5.90;98.00;;;;;;4993410;28;20467;-62
2023/11/22 08:38:26;;;;;;;8.20;3.60;;;5.90;98.00;;;;;;4993609;28;20456;-62
2023/11/22 08:40:54;;;;;;;7.20;3.57;;;5.80;98.00;;;;;;4992550;28;20849;-62
2023/11/22 08:43:24;;;;;;;7.93;3.73;;;5.70;98.00;;;;;;4993398;28;20564;-62
2023/11/22 08:45:51;;;;;;;7.40;3.67;;;5.60;98.00;;;;;;4993516;28;20950;-62
2023/11/22 08:48:18;;;;;;;8.60;4.00;;;5.60;98.00;;;;;;4991627;28;20448;-62
2023/11/22 08:50:47;;;;;;;8.40;3.80;;;5.50;98.00;;;;;;4992105;28;20484;-62
2023/11/22 08:53:15;;;;;;;10.63;3.80;;;5.50;98.00;;;;;;4993204;28;20522;-63
2023/11/22 08:55:43;;;;;;;6.93;3.53;;;5.50;98.00;;;;;;4992097;28;20517;-62
2023/11/22 08:58:11;;;;;;;5.77;3.20;;;5.60;98.00;;;;;;4993077;28;20528;-63
2023/11/22 09:00:41;;;;;;;8.70;4.07;;;5.60;98.00;;;;;;4993224;28;20456;-61
2023/11/22 09:03:08;;;;;;;12.13;4.67;;;5.30;98.00;;;;;;4992968;28;20460;-62
2023/11/22 09:05:37;;;;;;;8.33;4.23;;;5.20;98.00;;;;;;4992121;28;21017;-63
2023/11/22 09:08:05;;;;;;;9.70;4.47;;;5.10;98.00;;;;;;4992816;28;20460;-62
2023/11/22 09:10:32;;;;;;;11.60;4.97;;;5.00;98.00;;;;;;4992997;28;20455;-62
2023/11/22 09:12:59;;;;;;;11.60;4.50;;;4.90;98.00;;;;;;4992931;28;20466;-62
2023/11/22 09:15:29;;;;;;;8.30;4.03;;;4.70;98.00;;;;;;4992868;28;20881;-62
2023/11/22 09:17:58;;;;;;;9.50;4.67;;;4.70;98.00;;;;;;4992747;28;20544;-62
2023/11/22 09:20:25;;;;;;;7.40;4.10;;;4.60;98.00;;;;;;4992727;28;20450;-62
2023/11/22 09:22:54;;;;;;;8.10;3.80;;;4.70;98.00;;;;;;4992707;28;20456;-62
2023/11/22 09:25:22;;;;;;;10.10;4.43;;;4.70;98.00;;;;;;4993088;28;20801;-62
2023/11/22 09:27:51;;;;;;;7.10;3.73;;;4.80;98.00;;;;;;4992967;28;20856;-62
2023/11/22 09:30:34;;;;;;;10.57;4.80;;;5.00;98.00;;;;;;4992433;28;20529;-62
2023/11/22 09:33:04;;;;;;;13.50;5.37;;;5.00;98.00;;;;;;4992416;28;20462;-62
2023/11/22 09:35:33;;;;;;;8.47;4.20;;;5.10;98.00;;;;;;4992020;28;20965;-62
2023/11/22 09:38:03;;;;;;;8.17;3.40;;;5.30;98.00;;;;;;4992026;28;20496;-65
2023/11/22 09:40:31;;;;;;;15.00;4.83;;;5.50;98.00;;;;;;4991999;28;20456;-66
2023/11/22 09:43:00;;;;;;;6.60;3.80;;;5.80;98.00;;;;;;4991762;28;20521;-65
2023/11/22 09:45:27;;;;;;;7.07;3.90;;;6.50;98.00;;;;;;4991939;28;20963;-65
2023/11/22 09:47:55;;;;;;;8.67;3.90;;;7.20;98.00;;;;;;4991979;28;20503;-65
2023/11/22 09:50:34;;;;;;;9.50;4.47;;;7.50;98.00;;;;;;4991545;28;20973;-64
2023/11/22 09:53:03;;;;;;;10.93;5.20;;;7.80;98.00;;;;;;4990635;28;20544;-63
2023/11/22 09:55:35;;;;;;;10.27;5.17;;;7.60;98.00;;;;;;4992114;28;20464;-62
2023/11/22 09:58:10;;;;;;;13.20;4.90;;;7.10;98.00;;;;;;4991923;28;20490;-62
2023/11/22 10:00:37;;;;;;;9.70;4.67;;;7.00;98.00;;;;;;4992536;28;20457;-62
2023/11/22 10:03:05;;;;;;;9.57;4.40;;;6.80;98.00;;;;;;4992803;28;20463;-62
2023/11/22 10:05:34;;;;;;;9.60;4.60;;;6.60;98.00;;;;;;4993062;28;20445;-63
2023/11/22 10:08:03;;;;;;;37.37;4.80;;;6.40;98.00;;;;;;4993774;28;20837;-62
2023/11/22 10:10:33;;;;;;;10.70;4.33;;;6.10;98.00;;;;;;4994907;28;20457;-62
2023/11/22 10:13:01;;;;;;;10.40;4.60;;;5.90;98.00;;;;;;4994492;28;20456;-62
2023/11/22 10:15:29;;;;;;;12.30;4.37;;;5.70;98.00;;;;;;4994505;28;20461;-66
2023/11/22 10:17:58;;;;;;;9.50;4.40;;;5.50;98.00;;;;;;4993578;28;20625;-60
2023/11/22 10:20:25;;;;;;;10.53;4.80;;;5.40;98.00;;;;;;4992866;28;20467;-61
2023/11/22 10:22:54;;;;;;;11.50;5.10;;;5.20;98.00;;;;;;4992878;28;20449;-60
2023/11/22 10:25:22;;;;;;;9.90;4.67;;;5.10;98.00;;;;;;4992610;28;20456;-61
2023/11/22 10:27:51;;;;;;;7.07;3.60;;;5.10;98.00;;;;;;4992612;28;20545;-60
2023/11/22 10:30:18;;;;;;;7.97;4.43;;;5.20;98.00;;;;;;4992360;28;20499;-60
2023/11/22 10:32:46;;;;;;;10.13;4.23;;;5.20;98.00;;;;;;4992759;28;20466;-60
2023/11/22 10:35:15;;;;;;;7.03;4.10;;;5.00;98.00;;;;;;4992526;28;20848;-61
2023/11/22 10:37:44;;;;;;;9.37;4.67;;;5.00;98.00;;;;;;4992688;28;20525;-60
2023/11/22 10:40:13;;;;;;;9.33;4.40;;;5.00;98.00;;;;;;4992595;28;20463;-61
2023/11/22 10:42:42;;;;;;;9.07;4.70;;;5.00;98.00;;;;;;4992444;28;20466;-61
2023/11/22 10:45:10;;;;;;;8.97;4.10;;;5.00;98.00;;;;;;4991239;28;20471;-60
2023/11/22 10:47:42;;;;;;;10.77;4.57;;;4.90;98.00;;;;;;4992612;28;20513;-61
2023/11/22 10:50:10;;;;;;;8.00;3.97;;;4.80;98.00;;;;;;4992591;28;20536;-61
2023/11/22 10:52:38;;;;;;;11.67;4.40;;;4.90;98.00;;;;;;4992597;28;20466;-61
2023/11/22 10:55:07;;;;;;;10.60;4.47;;;4.90;98.00;;;;;;4992171;28;20819;-61
2023/11/22 10:57:41;;;;;;;14.63;4.90;;;4.90;98.00;;;;;;4991869;28;20533;-60
2023/11/22 11:00:12;;;;;;;10.40;4.90;;;5.00;98.00;;;;;;4992189;28;20534;-61
2023/11/22 11:02:45;;;;;;;7.07;3.87;;;5.00;98.00;;;;;;4993288;28;20609;-62
2023/11/22 11:05:17;;;;;;;8.70;4.27;;;4.90;98.00;;;;;;4995898;28;20973;-62
2023/11/22 11:07:51;;;;;;;9.77;4.60;;;5.00;98.00;;;;;;4995600;28;20462;-61
2023/11/22 11:10:21;;;;;;;10.27;4.23;;;5.20;98.00;;;;;;4995586;28;20525;-61
2023/11/22 11:12:54;;;;;;;9.90;4.00;;;5.20;98.00;;;;;;4995267;28;20492;-62
2023/11/22 11:15:23;;;;;;;13.87;4.83;;;5.20;98.00;;;;;;4995171;28;20563;-62
2023/11/22 11:17:51;;;;;;;7.37;3.87;;;5.20;98.00;;;;;;4995122;28;20495;-61
2023/11/22 11:20:19;;;;;;;10.70;4.90;;;5.40;98.00;;;;;;4995172;28;20493;-62
2023/11/22 11:22:48;;;;;;;8.77;4.23;;;5.40;98.00;;;;;;4994863;28;20505;-62
2023/11/22 11:25:18;;;;;;;8.70;4.00;;;5.40;98.00;;;;;;4994735;28;20458;-61
2023/11/22 11:27:46;;;;;;;7.70;3.93;;;5.20;98.00;;;;;;4994810;28;20597;-62
2023/11/22 11:30:46;;;;;;;8.37;3.67;;;5.30;98.00;;;;;;4994826;28;20531;-62
2023/11/22 11:33:16;;;;;;;7.23;3.30;;;5.40;98.00;;;;;;4994464;28;21039;-61
2023/11/22 11:35:48;;;;;;;7.80;3.67;;;5.50;98.00;;;;;;4994759;28;20457;-61
2023/11/22 11:38:17;;;;;;;7.90;3.90;;;5.50;98.00;;;;;;4994714;28;20926;-61
2023/11/22 11:40:47;;;;;;;6.20;3.27;;;5.30;98.00;;;;;;4994796;28;20452;-62
2023/11/22 11:43:14;;;;;;;6.60;3.77;;;5.30;98.00;;;;;;4994403;28;20505;-62
2023/11/22 11:45:45;;;;;;;8.33;3.83;;;5.20;98.00;;;;;;4994786;28;20537;-61
2023/11/22 11:48:15;;;;;;;8.20;3.80;;;5.40;98.00;;;;;;4994485;28;20453;-62
2023/11/22 11:50:42;;;;;;;7.33;3.50;;;5.40;98.00;;;;;;4994531;28;20495;-62
2023/11/22 11:53:10;;;;;;;5.20;3.27;;;5.50;98.00;;;;;;4994385;28;20455;-61
2023/11/22 11:55:37;;;;;;;4.57;2.80;;;5.60;98.00;;;;;;4994474;28;20515;-61
2023/11/22 11:58:09;;;;;;;9.10;4.10;;;5.70;98.00;;;;;;4994271;28;20584;-61
2023/11/22 12:00:40;;;;;;;6.97;3.73;;;5.70;98.00;;;;;;5049438;22;20853;-62
2023/11/22 12:03:10;;;;;;;5.87;3.17;;;5.60;98.00;;;;;;4992144;28;20468;-61
2023/11/22 12:05:40;;;;;;;5.70;2.90;;;5.50;98.00;;;;;;4993711;28;20451;-61
2023/11/22 12:08:08;;;;;;;7.03;3.00;;;5.50;98.00;;;;;;4994133;28;20502;-61
2023/11/22 12:10:35;;;;;;;5.53;3.00;;;5.60;98.00;;;;;;4993126;28;20577;-61
2023/11/22 12:13:02;;;;;;;7.63;3.30;;;5.60;98.00;;;;;;4993799;28;20455;-61
2023/11/22 12:15:30;;;;;;;6.97;3.70;;;5.60;98.00;;;;;;4994116;28;21024;-61
2023/11/22 12:17:57;;;;;;;9.67;4.50;;;5.50;98.00;;;;;;4993996;28;20523;-62
2023/11/22 12:20:26;;;;;;;9.10;4.53;;;5.50;98.00;;;;;;4992822;28;20454;-61
2023/11/22 12:22:55;;;;;;;9.73;4.30;;;5.50;98.00;;;;;;4992735;28;20466;-62
2023/11/22 12:25:22;;;;;;;10.90;4.70;;;5.50;98.00;;;;;;4993969;28;20550;-61
2023/11/22 12:27:49;;;;;;;10.23;4.23;;;5.50;98.00;;;;;;4993901;28;20455;-61
2023/11/22 12:30:31;;;;;;;8.90;4.17;;;5.50;98.00;;;;;;4993864;28;20488;-61
2023/11/22 12:33:02;;;;;;;12.73;3.90;;;5.50;98.00;;;;;;4993639;28;20486;-61
2023/11/22 12:35:31;;;;;;;9.23;3.90;;;5.60;98.00;;;;;;4993850;28;20467;-61
2023/11/22 12:38:01;;;;;;;7.97;3.73;;;5.60;98.00;;;;;;4993082;28;20489;-61
2023/11/22 12:40:30;;;;;;;6.67;3.57;;;5.50;98.00;;;;;;4993781;28;20470;-61
2023/11/22 12:42:58;;;;;;;8.43;3.90;;;5.40;98.00;;;;;;4993975;28;20450;-61
2023/11/22 12:45:28;;;;;;;8.87;4.00;;;5.40;98.00;;;;;;4993559;28;20459;-62
2023/11/22 12:47:56;;;;;;;7.80;3.83;;;5.30;98.00;;;;;;4993473;28;20467;-62
2023/11/22 12:50:38;;;;;;;9.67;4.03;;;5.40;98.00;;;;;;4993311;28;20469;-62
2023/11/22 12:53:14;;;;;;;11.23;5.10;;;5.30;98.00;;;;;;4993308;28;20534;-62
2023/11/22 12:55:44;;;;;;;9.33;4.07;;;5.10;98.00;;;;;;4993412;28;20469;-62
2023/11/22 12:58:13;;;;;;;9.90;4.23;;;5.40;98.00;;;;;;4993184;28;20484;-62
2023/11/22 13:00:41;;;;;;;7.80;3.77;;;5.30;98.00;;;;;;4992953;28;20823;-62
2023/11/22 13:03:10;;;;;;;10.63;4.27;;;5.40;98.00;;;;;;4992962;28;20452;-61
2023/11/22 13:05:37;;;;;;;9.07;4.10;;;5.20;98.00;;;;;;4993151;28;20456;-61
2023/11/22 13:08:05;;;;;;;8.27;3.67;;;5.30;98.00;;;;;;4993076;28;20464;-61